Quorndon, United Kingdom
Current Conditions -  °F | °C
As of 5:20 AM on Wednesday 26 Nov 2014 (Local Time) from EGNX Reporting Station
Light Rain Light Rain  
Wind Chill: 40°   Ceiling: 2400
Heat Index: 45°   Visibility: 3mi
Dew Point: 45°   Wind: 9mph
Humidity: 100%   Direction: 60°ENE
Pressure: 29.94"   Gusts: NA
Location:  52.74°N, 1.17°W
Report Text: EGNX 260520Z 06008KT 5000 -RADZ FEW005 SCT015 BKN024 07/07 Q1014
Loading
Personal Weather Stations






























Interactive Weather Map New forecast layout! Learn more

10-Day Weather Forecast

Advertisements
Track Severe Weather on mobile